Decoded Metar for PAAK (ATKA in AK, USA) (IATA:AAK) | Meteo·Mobile Aviation Weather
aviador You're here:

PAAK Decoded Metar

ATKA in AK, USA
Report Time2018-12-16 03:56:00
UTC Time2018-12-16 04:52:13
Flight Rules vfr VFR
Wind070° at 09 kt
W.Decomp.*RWY 34: 1.3 kt HW 8.9 kt RCW
W.Rank070° ranks 15
Current wind is below 070° avg. (13.0)
Visibility9999 m
Phenomena:N/A
Clouds:Scattered 030 Hf
Expected CloudBase > 2,000 ft AGL from Temp-Dew spread
CeilingNone
Temp01°C (ISA -14)
Dew Point-4°C (70% RH)
AAT-4.7°C
QNH997 hPa
Density Alt-1,024 ft
Elevation56 ft
Report Wrong Elevation
Raw Report
PAAK 160356Z AUTO 07009KT 10SM SCT030 01/M04 A2944 RMK AO2 SLP971
T00061044 FZRANO=

Extra information for PAAK:More info

Metar Taf Metar & Taf Last 4 Metars F.Rules Stats Wind Profile Meteogram Temp Stats Airport Information Weather charts Add Link Nearby VenuesMetar ALERT Operation Metar Decoded Social comments

AIRNAV info for PAAK